createdAt,value
2022-08-18T00:01:44.444Z,101196.34
2022-08-18T00:04:21.743Z,101200.34
2022-08-18T00:06:58.934Z,101193.72
2022-08-18T00:09:30.130Z,101197.09
2022-08-18T00:11:58.952Z,101198.22
2022-08-18T00:14:25.835Z,101203.94
2022-08-18T00:16:54.617Z,101202.59
2022-08-18T00:19:46.923Z,101200.59
2022-08-18T00:22:15.213Z,101200.75
2022-08-18T00:24:49.207Z,101199.31
2022-08-18T00:27:30.454Z,101206.97
2022-08-18T00:30:03.927Z,101210.19
2022-08-18T00:32:37.856Z,101202.63
2022-08-18T00:35:13.882Z,101201.56
2022-08-18T00:37:41.967Z,101197.69
2022-08-18T00:40:12.342Z,101198.66
2022-08-18T00:42:47.753Z,101200.59
2022-08-18T00:45:18.857Z,101205.06
2022-08-18T00:47:46.294Z,101208.59
2022-08-18T00:50:16.524Z,101211.09
2022-08-18T00:52:53.505Z,101198.59
2022-08-18T00:55:21.682Z,101200.97
2022-08-18T00:57:51.646Z,101192.16
2022-08-18T01:00:19.132Z,101188.25
2022-08-18T01:02:50.670Z,101189.78
2022-08-18T01:05:30.462Z,101186.44
2022-08-18T01:07:57.609Z,101188.81
2022-08-18T01:10:24.539Z,101190.50
2022-08-18T01:12:56.452Z,101192.88
2022-08-18T01:15:28.163Z,101190.09
2022-08-18T01:18:17.548Z,101194.19
2022-08-18T01:21:22.901Z,101183.59
2022-08-18T01:23:52.287Z,101167.09
2022-08-18T01:26:21.825Z,101171.63
2022-08-18T01:28:49.667Z,101169.84
2022-08-18T01:31:55.632Z,101170.81
2022-08-18T01:34:27.624Z,101170.66
2022-08-18T01:36:55.003Z,101166.22
2022-08-18T01:41:22.075Z,101164.53
2022-08-18T01:42:10.094Z,101164.38
2022-08-18T01:44:37.729Z,101162.50
2022-08-18T01:47:04.555Z,101169.50
2022-08-18T01:49:31.410Z,101174.84
2022-08-18T01:51:58.242Z,101181.75
2022-08-18T01:54:30.613Z,101190.72
2022-08-18T01:56:57.821Z,101190.34
2022-08-18T01:59:24.712Z,101191.66
2022-08-18T02:01:56.353Z,101199.72
2022-08-18T02:04:37.051Z,101199.16
2022-08-18T02:07:07.842Z,101203.13
2022-08-18T02:09:37.461Z,101204.47
2022-08-18T02:12:05.967Z,101207.13
2022-08-18T02:14:34.533Z,101204.94
2022-08-18T02:17:03.550Z,101201.38
2022-08-18T02:19:35.551Z,101204.59
2022-08-18T02:22:03.590Z,101196.22
2022-08-18T02:24:30.511Z,101187.19
2022-08-18T02:26:59.991Z,101187.34
2022-08-18T02:29:27.384Z,101185.94
2022-08-18T02:31:54.789Z,101176.88
2022-08-18T02:34:21.678Z,101175.09
2022-08-18T02:36:48.571Z,101175.75
2022-08-18T02:39:15.500Z,101176.44
2022-08-18T02:41:42.539Z,101178.72
2022-08-18T02:44:09.940Z,101178.16
2022-08-18T02:46:37.697Z,101181.25
2022-08-18T02:49:06.255Z,101171.81
2022-08-18T02:51:33.615Z,101168.38
2022-08-18T02:54:00.661Z,101172.31
2022-08-18T02:56:40.742Z,101172.94
2022-08-18T02:59:13.167Z,101175.13
2022-08-18T03:01:42.979Z,101175.03
2022-08-18T03:04:12.500Z,101173.88
2022-08-18T03:06:40.205Z,101170.53
2022-08-18T03:09:09.928Z,101170.81
2022-08-18T03:11:37.919Z,101172.94
2022-08-18T03:14:06.519Z,101181.69
2022-08-18T03:16:38.770Z,101184.53
2022-08-18T03:19:05.572Z,101186.44
2022-08-18T03:21:36.232Z,101185.84
2022-08-18T03:24:09.142Z,101189.38
2022-08-18T03:26:41.809Z,101190.03
2022-08-18T03:29:09.650Z,101179.06
2022-08-18T03:31:38.416Z,101186.94
2022-08-18T03:34:08.415Z,101171.41
2022-08-18T03:36:37.014Z,101188.22
2022-08-18T03:39:10.523Z,101184.78
2022-08-18T03:41:59.090Z,101184.09
2022-08-18T03:44:30.703Z,101186.72
2022-08-18T03:46:57.830Z,101183.16
2022-08-18T03:49:26.854Z,101185.03
2022-08-18T03:51:54.499Z,101191.41
2022-08-18T03:54:21.728Z,101192.94
2022-08-18T03:56:49.547Z,101198.19
2022-08-18T03:59:19.876Z,101194.13
2022-08-18T04:01:49.428Z,101202.06
2022-08-18T04:04:19.620Z,101202.16
2022-08-18T04:06:58.578Z,101199.41
2022-08-18T04:09:29.428Z,101199.31
2022-08-18T04:11:58.355Z,101198.63
2022-08-18T04:14:32.632Z,101196.59
2022-08-18T04:16:59.693Z,101196.75
2022-08-18T04:19:27.955Z,101194.72
2022-08-18T04:21:57.937Z,101196.88
2022-08-18T04:24:28.150Z,101188.25
2022-08-18T04:26:59.108Z,101196.44
2022-08-18T04:29:25.976Z,101195.50
2022-08-18T04:31:52.898Z,101197.94
2022-08-18T04:34:22.826Z,101202.84
2022-08-18T04:36:54.060Z,101210.13
2022-08-18T04:39:22.145Z,101208.16
2022-08-18T04:41:49.993Z,101211.06
2022-08-18T04:44:18.308Z,101210.78
2022-08-18T04:46:52.033Z,101218.81
2022-08-18T04:49:21.687Z,101217.63
2022-08-18T04:52:26.882Z,101226.53
2022-08-18T04:54:55.762Z,101228.34
2022-08-18T04:57:23.094Z,101225.59
2022-08-18T04:59:52.374Z,101226.81
2022-08-18T05:02:21.318Z,101222.44
2022-08-18T05:04:48.552Z,101231.34
2022-08-18T05:07:20.077Z,101232.16
2022-08-18T05:09:47.167Z,101235.94
2022-08-18T05:12:15.984Z,101233.47
2022-08-18T05:14:45.318Z,101232.38
2022-08-18T05:17:14.267Z,101237.00
2022-08-18T05:19:44.595Z,101234.13
2022-08-18T05:22:17.854Z,101242.00
2022-08-18T05:24:45.814Z,101243.53
2022-08-18T05:27:13.602Z,101248.72
2022-08-18T05:29:41.493Z,101241.34
2022-08-18T05:32:41.014Z,101234.81
2022-08-18T05:35:14.144Z,101239.06
2022-08-18T05:37:47.447Z,101239.50
2022-08-18T05:40:15.020Z,101236.22
2022-08-18T05:42:42.815Z,101235.16
2022-08-18T05:45:17.077Z,101238.56
2022-08-18T05:47:44.773Z,101233.63
2022-08-18T05:50:17.186Z,101237.06
2022-08-18T05:52:55.175Z,101239.22
2022-08-18T05:56:02.785Z,101236.19
2022-08-18T05:58:36.636Z,101231.06
2022-08-18T06:01:30.216Z,101231.84
2022-08-18T06:04:05.272Z,101237.97
2022-08-18T06:06:36.055Z,101239.94
2022-08-18T06:09:12.165Z,101240.88
2022-08-18T06:11:39.305Z,101242.72
2022-08-18T06:14:06.355Z,101247.34
2022-08-18T06:16:33.126Z,101252.31
2022-08-18T06:19:11.972Z,101250.41
2022-08-18T06:22:02.575Z,101244.72
2022-08-18T06:24:46.760Z,101245.09
2022-08-18T06:27:19.615Z,101242.16
2022-08-18T06:29:53.598Z,101253.16
2022-08-18T06:32:41.915Z,101245.03
2022-08-18T06:35:08.707Z,101249.78
2022-08-18T06:38:01.464Z,101258.06
2022-08-18T06:40:28.409Z,101257.03
2022-08-18T06:42:55.233Z,101265.19
2022-08-18T06:45:41.915Z,101261.22
2022-08-18T06:48:27.390Z,101270.63
2022-08-18T06:51:00.346Z,101268.38
2022-08-18T06:53:50.399Z,101272.47
2022-08-18T06:56:40.829Z,101274.34
2022-08-18T06:59:34.298Z,101282.41
2022-08-18T07:02:02.750Z,101285.91
2022-08-18T07:04:37.717Z,101286.56
2022-08-18T07:07:40.742Z,101287.69
2022-08-18T07:10:29.181Z,101287.44
2022-08-18T07:13:19.384Z,101275.22
2022-08-18T07:15:48.263Z,101287.09
2022-08-18T07:18:26.357Z,101283.59
2022-08-18T07:21:02.432Z,101286.63
2022-08-18T07:23:38.664Z,101291.22
2022-08-18T07:26:15.598Z,101302.44
2022-08-18T07:28:46.031Z,101298.56
2022-08-18T07:31:24.900Z,101294.75
2022-08-18T07:34:21.231Z,101299.00
2022-08-18T07:36:51.360Z,101300.75
2022-08-18T07:39:28.053Z,101305.69
2022-08-18T07:42:53.966Z,101311.41
2022-08-18T07:45:23.861Z,101312.59
2022-08-18T07:48:20.809Z,101308.47
2022-08-18T07:50:58.854Z,101299.31
2022-08-18T07:53:54.417Z,101302.63
2022-08-18T07:56:44.904Z,101306.00
2022-08-18T07:59:11.708Z,101307.41
2022-08-18T08:01:51.623Z,101309.47
2022-08-18T08:04:35.921Z,101321.28
2022-08-18T08:07:27.464Z,101320.22
2022-08-18T08:10:15.927Z,101333.59
2022-08-18T08:12:51.849Z,101312.91
2022-08-18T08:15:26.729Z,101318.72
2022-08-18T08:18:03.073Z,101325.66
2022-08-18T08:20:39.292Z,101326.03
2022-08-18T08:23:17.875Z,101329.31
2022-08-18T08:25:53.077Z,101319.31
2022-08-18T08:28:57.519Z,101338.00
2022-08-18T08:31:54.018Z,101343.34
2022-08-18T08:34:27.700Z,101344.59
2022-08-18T08:37:04.444Z,101344.94
2022-08-18T08:39:47.350Z,101354.72
2022-08-18T08:42:29.087Z,101350.34
2022-08-18T08:45:07.280Z,101356.84
2022-08-18T08:47:44.448Z,101351.53
2022-08-18T08:50:19.779Z,101355.25
2022-08-18T08:52:56.837Z,101350.59
2022-08-18T08:55:37.237Z,101356.81
2022-08-18T08:58:54.595Z,101363.31
2022-08-18T09:01:48.994Z,101356.03
2022-08-18T09:04:15.842Z,101371.16
2022-08-18T09:07:22.678Z,101364.13
2022-08-18T09:10:04.412Z,101357.97
2022-08-18T09:12:58.726Z,101356.66
2022-08-18T09:15:43.976Z,101368.56
2022-08-18T09:18:34.169Z,101364.59
2022-08-18T09:21:11.835Z,101364.47
2022-08-18T09:23:46.313Z,101364.94
2022-08-18T09:26:39.395Z,101373.13
2022-08-18T09:29:24.585Z,101366.34
2022-08-18T09:32:22.997Z,101357.97
2022-08-18T09:35:09.742Z,101359.34
2022-08-18T09:38:20.432Z,101362.59
2022-08-18T09:41:31.398Z,101356.94
2022-08-18T09:44:21.533Z,101348.91
2022-08-18T09:46:57.492Z,101361.28
2022-08-18T09:49:38.834Z,101355.69
2022-08-18T09:52:43.781Z,101366.69
2022-08-18T09:55:18.040Z,101370.31
2022-08-18T09:57:46.689Z,101376.94
2022-08-18T10:00:28.497Z,101367.06
2022-08-18T10:02:55.627Z,101365.53
2022-08-18T10:05:31.205Z,101364.63
2022-08-18T10:08:07.206Z,101368.84
2022-08-18T10:11:00.351Z,101375.91
2022-08-18T10:13:54.830Z,101381.16
2022-08-18T10:17:21.794Z,101381.31
2022-08-18T10:19:57.601Z,101390.59
2022-08-18T10:22:47.513Z,101394.75
2022-08-18T10:25:32.902Z,101391.56
2022-08-18T10:28:01.813Z,101383.16
2022-08-18T10:30:52.693Z,101389.94
2022-08-18T10:34:05.543Z,101389.94
2022-08-18T10:36:59.397Z,101396.53
2022-08-18T10:39:41.246Z,101391.66
2022-08-18T10:42:33.724Z,101393.47
2022-08-18T10:45:11.901Z,101379.44
2022-08-18T10:47:38.882Z,101383.31
2022-08-18T10:50:20.026Z,101389.72
2022-08-18T10:56:01.944Z,101394.22
2022-08-18T10:58:51.624Z,101389.66
2022-08-18T11:01:35.589Z,101387.72
2022-08-18T11:04:14.462Z,101393.47
2022-08-18T11:07:00.702Z,101398.84
2022-08-18T11:09:30.117Z,101397.78
2022-08-18T11:12:02.871Z,101400.41
2022-08-18T11:14:35.769Z,101402.78
2022-08-18T11:17:26.338Z,101402.97
2022-08-18T11:19:54.671Z,101410.00
2022-08-18T11:25:31.245Z,101414.44
2022-08-18T11:27:59.662Z,101419.13
2022-08-18T11:30:35.215Z,101419.44
2022-08-18T11:33:04.087Z,101413.16
2022-08-18T11:35:45.996Z,101406.72
2022-08-18T11:38:20.800Z,101408.41
2022-08-18T11:41:11.315Z,101410.59
2022-08-18T11:43:42.447Z,101409.06
2022-08-18T11:46:27.986Z,101417.59
2022-08-18T11:48:57.844Z,101401.19
2022-08-18T11:51:35.671Z,101414.31
2022-08-18T11:54:23.183Z,101417.94
2022-08-18T11:56:50.627Z,101421.22
2022-08-18T11:59:52.610Z,101421.72
2022-08-18T12:02:18.651Z,101411.75
2022-08-18T12:04:52.507Z,101407.19
2022-08-18T12:07:30.242Z,101413.84
2022-08-18T12:13:07.425Z,101403.16
2022-08-18T12:15:44.254Z,101407.38
2022-08-18T12:21:02.888Z,101404.50
2022-08-18T12:23:39.154Z,101405.78
2022-08-18T12:26:18.991Z,101404.38
2022-08-18T12:29:03.070Z,101400.16
2022-08-18T12:31:42.452Z,101386.22
2022-08-18T12:34:15.433Z,101399.69
2022-08-18T12:36:42.854Z,101386.88
2022-08-18T12:39:10.518Z,101392.66
2022-08-18T12:41:37.769Z,101385.25
2022-08-18T12:46:52.363Z,101392.75
2022-08-18T12:49:22.019Z,101381.44
2022-08-18T12:51:50.272Z,101385.41
2022-08-18T12:54:21.169Z,101374.53
2022-08-18T12:56:54.305Z,101379.59
2022-08-18T12:59:21.725Z,101377.53
2022-08-18T13:01:58.243Z,101375.25
2022-08-18T13:04:26.958Z,101373.59
2022-08-18T13:07:01.929Z,101380.72
2022-08-18T13:09:48.912Z,101373.97
2022-08-18T13:12:21.836Z,101380.88
2022-08-18T13:14:49.908Z,101372.50
2022-08-18T13:17:30.432Z,101376.47
2022-08-18T13:20:18.940Z,101365.31
2022-08-18T13:22:45.861Z,101367.50
2022-08-18T13:25:28.732Z,101372.88
2022-08-18T13:28:02.087Z,101371.13
2022-08-18T13:30:31.062Z,101371.84
2022-08-18T13:33:05.394Z,101361.44
2022-08-18T13:35:48.322Z,101360.88
2022-08-18T13:38:27.195Z,101368.16
2022-08-18T13:40:58.727Z,101357.19
2022-08-18T13:43:39.200Z,101355.59
2022-08-18T13:46:09.272Z,101351.00
2022-08-18T13:48:37.836Z,101353.09
2022-08-18T13:51:08.495Z,101362.44
2022-08-18T13:53:50.484Z,101360.22
2022-08-18T13:56:19.739Z,101371.56
2022-08-18T13:58:53.442Z,101369.56
2022-08-18T14:01:45.379Z,101371.22
2022-08-18T14:04:12.623Z,101373.69
2022-08-18T14:06:46.938Z,101358.97
2022-08-18T14:09:36.012Z,101365.25
2022-08-18T14:12:15.777Z,101356.53
2022-08-18T14:14:52.034Z,101364.72
2022-08-18T14:17:22.242Z,101360.88
2022-08-18T14:20:21.131Z,101368.16
2022-08-18T14:23:10.329Z,101381.94
2022-08-18T14:25:56.173Z,101377.63
2022-08-18T14:28:24.849Z,101393.31
2022-08-18T14:30:54.454Z,101395.28
2022-08-18T14:33:27.259Z,101402.75
2022-08-18T14:36:10.883Z,101398.19
2022-08-18T14:38:38.399Z,101395.44
2022-08-18T14:41:08.470Z,101408.47
2022-08-18T14:44:11.258Z,101413.31
2022-08-18T14:46:23.615Z,101417.72
2022-08-18T14:48:57.439Z,101412.69
2022-08-18T14:51:27.303Z,101408.34
2022-08-18T14:53:55.326Z,101411.28
2022-08-18T14:56:24.480Z,101420.41
2022-08-18T14:58:55.986Z,101411.41
2022-08-18T15:01:24.665Z,101410.38
2022-08-18T15:03:55.021Z,101425.25
2022-08-18T15:06:27.123Z,101423.03
2022-08-18T15:08:56.934Z,101427.00
2022-08-18T15:11:25.245Z,101427.00
2022-08-18T15:13:55.420Z,101429.44
2022-08-18T15:16:31.636Z,101430.72
2022-08-18T15:18:59.651Z,101425.41
2022-08-18T15:21:49.218Z,101429.59
2022-08-18T15:24:37.561Z,101416.13
2022-08-18T15:27:10.510Z,101406.38
2022-08-18T15:29:46.551Z,101410.91
2022-08-18T15:32:16.893Z,101408.28
2022-08-18T15:34:46.625Z,101413.84
2022-08-18T15:37:19.433Z,101415.09
2022-08-18T15:39:51.974Z,101412.91
2022-08-18T15:42:23.598Z,101410.97
2022-08-18T15:44:52.745Z,101411.00
2022-08-18T15:47:22.054Z,101401.53
2022-08-18T15:49:52.203Z,101406.25
2022-08-18T15:52:25.959Z,101413.41
2022-08-18T15:54:57.000Z,101399.34
2022-08-18T15:57:39.213Z,101402.38
2022-08-18T16:00:12.266Z,101388.06
2022-08-18T16:02:44.523Z,101389.59
2022-08-18T16:05:12.009Z,101378.81
2022-08-18T16:07:45.265Z,101368.72
2022-08-18T16:10:13.771Z,101377.75
2022-08-18T16:12:46.087Z,101378.75
2022-08-18T16:15:19.453Z,101375.47
2022-08-18T16:17:47.773Z,101366.56
2022-08-18T16:20:15.127Z,101364.44
2022-08-18T16:22:42.438Z,101361.44
2022-08-18T16:25:10.152Z,101356.78
2022-08-18T16:27:42.021Z,101352.97
2022-08-18T16:30:21.317Z,101360.84
2022-08-18T16:32:49.002Z,101354.59
2022-08-18T16:35:17.625Z,101345.84
2022-08-18T16:37:46.759Z,101351.59
2022-08-18T16:40:15.254Z,101348.28
2022-08-18T16:42:42.097Z,101350.94
2022-08-18T16:45:10.213Z,101353.50
2022-08-18T16:47:40.451Z,101352.28
2022-08-18T16:50:13.491Z,101352.31
2022-08-18T16:52:41.325Z,101352.06
2022-08-18T16:55:10.337Z,101350.66
2022-08-18T16:58:00.853Z,101347.41
2022-08-18T17:00:52.876Z,101343.78
2022-08-18T17:03:44.113Z,101343.38
2022-08-18T17:06:13.908Z,101337.69
2022-08-18T17:08:42.474Z,101333.50
2022-08-18T17:11:16.454Z,101328.78
2022-08-18T17:13:44.751Z,101336.81
2022-08-18T17:16:12.274Z,101330.31
2022-08-18T17:18:40.392Z,101331.00
2022-08-18T17:21:11.467Z,101337.47
2022-08-18T17:23:39.258Z,101339.69
2022-08-18T17:26:17.603Z,101343.97
2022-08-18T17:29:01.806Z,101332.50
2022-08-18T17:31:29.009Z,101332.94
2022-08-18T17:34:04.327Z,101337.34
2022-08-18T17:36:37.750Z,101332.78
2022-08-18T17:39:11.021Z,101337.50
2022-08-18T17:41:57.927Z,101334.41
2022-08-18T17:44:31.087Z,101341.25
2022-08-18T17:47:00.491Z,101337.88
2022-08-18T17:50:28.211Z,101333.06
2022-08-18T17:52:53.490Z,101336.34
2022-08-18T17:55:41.729Z,101334.03
2022-08-18T17:58:26.723Z,101329.97
2022-08-18T18:00:53.737Z,101335.59
2022-08-18T18:03:20.744Z,101337.59
2022-08-18T18:05:51.851Z,101342.13
2022-08-18T18:08:18.873Z,101344.03
2022-08-18T18:11:05.382Z,101350.84
2022-08-18T18:13:33.941Z,101346.03
2022-08-18T18:16:19.924Z,101341.69
2022-08-18T18:18:56.538Z,101352.22
2022-08-18T18:21:53.481Z,101354.06
2022-08-18T18:24:15.383Z,101351.66
2022-08-18T18:26:48.127Z,101350.78
2022-08-18T18:29:37.670Z,101357.31
2022-08-18T18:32:24.152Z,101360.34
2022-08-18T18:35:09.806Z,101362.13
2022-08-18T18:37:47.133Z,101369.94
2022-08-18T18:40:20.699Z,101377.41
2022-08-18T18:42:48.132Z,101377.59
2022-08-18T18:45:31.069Z,101382.88
2022-08-18T18:48:03.140Z,101370.59
2022-08-18T18:50:53.121Z,101376.47
2022-08-18T18:54:01.139Z,101385.16
2022-08-18T18:56:39.545Z,101386.53
2022-08-18T18:59:25.680Z,101383.38
2022-08-18T19:02:02.646Z,101379.03
2022-08-18T19:04:44.031Z,101380.81
2022-08-18T19:07:25.165Z,101376.78
2022-08-18T19:10:29.425Z,101374.16
2022-08-18T19:13:00.940Z,101373.81
2022-08-18T19:15:30.258Z,101375.56
2022-08-18T19:18:17.368Z,101383.50
2022-08-18T19:21:25.512Z,101385.94
2022-08-18T19:23:50.840Z,101378.66
2022-08-18T19:26:27.054Z,101383.56
2022-08-18T19:29:08.989Z,101373.97
2022-08-18T19:32:04.695Z,101374.53
2022-08-18T19:34:36.375Z,101372.28
2022-08-18T19:37:47.892Z,101362.91
2022-08-18T19:40:24.533Z,101364.69
2022-08-18T19:43:12.098Z,101370.78
2022-08-18T19:45:44.827Z,101365.38
2022-08-18T19:48:39.403Z,101371.31
2022-08-18T19:51:12.435Z,101364.22
2022-08-18T19:53:52.819Z,101365.00
2022-08-18T19:56:22.617Z,101367.13
2022-08-18T19:59:25.869Z,101369.94
2022-08-18T20:02:19.760Z,101363.84
2022-08-18T20:04:57.378Z,101357.50
2022-08-18T20:07:26.955Z,101358.66
2022-08-18T20:10:23.987Z,101359.75
2022-08-18T20:13:19.982Z,101366.38
2022-08-18T20:16:15.987Z,101362.81
2022-08-18T20:18:49.074Z,101363.97
2022-08-18T20:21:15.917Z,101359.88
2022-08-18T20:24:07.216Z,101366.94
2022-08-18T20:26:38.165Z,101358.69
2022-08-18T20:29:11.287Z,101347.75
2022-08-18T20:31:49.725Z,101346.91
2022-08-18T20:34:21.213Z,101339.28
2022-08-18T20:36:49.621Z,101340.91
2022-08-18T20:39:46.265Z,101344.78
2022-08-18T20:42:22.229Z,101345.31
2022-08-18T20:44:49.516Z,101341.44
2022-08-18T20:47:42.013Z,101345.31
2022-08-18T20:50:31.429Z,101337.16
2022-08-18T20:53:07.757Z,101345.50
2022-08-18T20:56:01.205Z,101338.81
2022-08-18T20:58:45.659Z,101345.31
2022-08-18T21:01:13.894Z,101335.09
2022-08-18T21:03:44.061Z,101335.63
2022-08-18T21:06:15.358Z,101339.91
2022-08-18T21:09:01.194Z,101347.69
2022-08-18T21:11:38.275Z,101350.50
2022-08-18T21:14:05.258Z,101352.50
2022-08-18T21:16:38.715Z,101347.50
2022-08-18T21:19:13.897Z,101349.03
2022-08-18T21:21:45.952Z,101350.59
2022-08-18T21:24:27.995Z,101349.22
2022-08-18T21:26:58.470Z,101350.09
2022-08-18T21:29:51.533Z,101350.88
2022-08-18T21:32:22.592Z,101347.34
2022-08-18T21:34:50.139Z,101348.56
2022-08-18T21:37:18.286Z,101346.22
2022-08-18T21:39:57.709Z,101341.03
2022-08-18T21:42:29.055Z,101348.78
2022-08-18T21:45:00.663Z,101345.22
2022-08-18T21:47:34.335Z,101347.03
2022-08-18T21:50:13.055Z,101353.81
2022-08-18T21:52:56.360Z,101357.78
2022-08-18T21:55:45.245Z,101357.31
2022-08-18T21:58:17.851Z,101358.78
2022-08-18T22:01:08.263Z,101358.97
2022-08-18T22:03:56.264Z,101366.25
2022-08-18T22:06:40.444Z,101359.94
2022-08-18T22:09:28.728Z,101363.38
2022-08-18T22:12:44.107Z,101362.94
2022-08-18T22:15:31.111Z,101362.69
2022-08-18T22:18:00.820Z,101366.47
2022-08-18T22:20:48.150Z,101363.78
2022-08-18T22:23:33.401Z,101366.25
2022-08-18T22:26:18.401Z,101366.66
2022-08-18T22:29:00.522Z,101372.25
2022-08-18T22:31:37.327Z,101368.13
2022-08-18T22:34:17.444Z,101370.94
2022-08-18T22:37:15.639Z,101360.19
2022-08-18T22:40:01.033Z,101363.25
2022-08-18T22:42:33.203Z,101355.13
2022-08-18T22:45:04.479Z,101356.88
2022-08-18T22:47:40.515Z,101360.22
2022-08-18T22:50:11.000Z,101356.66
2022-08-18T22:52:46.469Z,101363.06
2022-08-18T22:55:21.953Z,101369.31
2022-08-18T22:57:51.440Z,101367.66
2022-08-18T23:00:23.461Z,101364.22
2022-08-18T23:02:53.451Z,101363.31
2022-08-18T23:05:20.481Z,101352.84
2022-08-18T23:07:47.437Z,101353.13
2022-08-18T23:10:16.537Z,101351.31
2022-08-18T23:12:44.570Z,101353.28
2022-08-18T23:15:11.771Z,101355.44
2022-08-18T23:17:40.687Z,101355.22
2022-08-18T23:20:12.184Z,101354.19
2022-08-18T23:22:45.449Z,101354.69
2022-08-18T23:25:13.425Z,101353.78
2022-08-18T23:27:41.301Z,101357.25
2022-08-18T23:30:09.319Z,101366.38
2022-08-18T23:32:36.398Z,101363.25
2022-08-18T23:35:04.132Z,101362.59
2022-08-18T23:37:31.688Z,101363.03
2022-08-18T23:39:59.200Z,101354.41
2022-08-18T23:42:26.062Z,101361.31
2022-08-18T23:44:52.867Z,101348.47
2022-08-18T23:47:20.930Z,101344.13
2022-08-18T23:49:48.492Z,101345.78
2022-08-18T23:52:15.375Z,101346.31
2022-08-18T23:54:42.400Z,101352.59
2022-08-18T23:57:09.210Z,101349.31
2022-08-18T23:59:36.626Z,101362.22
